Aéroport d'Albi - Le Séquestre

27/08/2016
OBS LFCI: 271445Z 14005KT CAVOK 34/10 Q1016=

ACCUEIL

Depuis le 6 juin 1910, date du premier vol effectué par Louis GIBERT, l’aéroport a permis aux nombreux passionnés d’aéronautique d’avoir une porte ouverte sur le ciel.

Une escale technique et touristique au cœur de Midi-Pyrénées
Ville : 3.5km Restaurant
Salle de réunion
AFIS anglais / préparation vols / SSLIA 2 (3 sur PPR)
Piste 1560 x 30m balisage HI, ILS cat I (piste 09)
Libre service H24
JET A1 / AVGAS

A moins de 5 minutes du centre historique, l’aéroport d’Albi - Le Séquestre accueille l’aviation d’affaire et commerciale, les vols privés, l’aviation à vocation touristique et sportive ainsi que les vols d’entraînement. Placé au centre d’un circuit automobile dynamique, il est également à proximité immédiate du Parc des Expositions et du plus grand centre commercial de l’Albigeois.

De ce fait, cet équipement constitue un maillon essentiel pour l’accessibilité et l’attractivité du bassin albigeois, en particulier pour la Cité Episcopale, classée au patrimoine mondial de l’UNESCO.